PRIVATE WETTERSTATION BILLIGHEIM-ALLFELD                       ZURCK
Wetterdaten: Freitag, 20.06.2014
Datum Zeit Temp. A. Temp. A. min Temp. A. max Feuchte A. Luftdruck Regen Wind Richtung Richtung Sonnenschein ET Solar Taupunkt Windchill Windben Empfang
20.06.2014 00:00 15,2 C 15,2 C 15,3 C 70 % 1015,9 hPa 0,0 l/m 3,2 km/h (1 Bft) NW 315 0 min 0,025 mm 0 W/m 9,8 C 15,2 C 8,0 km/h (2 Bft) 100 %
20.06.2014 00:10 15,2 C 15,2 C 15,2 C 70 % 1015,9 hPa 0,0 l/m 1,6 km/h (1 Bft) N-NW 337 0 min 0,000 mm 0 W/m 9,8 C 15,2 C 19,3 km/h (3 Bft) 100 %
20.06.2014 00:20 15,1 C 15,1 C 15,2 C 71 % 1015,9 hPa 0,0 l/m 1,6 km/h (1 Bft) NW 315 0 min 0,000 mm 0 W/m 9,9 C 15,1 C 8,0 km/h (2 Bft) 100 %
20.06.2014 00:30 15,1 C 15,1 C 15,1 C 71 % 1015,9 hPa 0,0 l/m 0,0 km/h (0 Bft) NW 315 0 min 0,000 mm 0 W/m 9,9 C 15,1 C 9,7 km/h (2 Bft) 100 %
20.06.2014 00:40 15,1 C 15,1 C 15,1 C 71 % 1015,9 hPa 0,0 l/m 1,6 km/h (1 Bft) NW 315 0 min 0,000 mm 0 W/m 9,9 C 15,1 C 6,4 km/h (2 Bft) 100 %
20.06.2014 00:50 15,1 C 15,1 C 15,1 C 73 % 1015,9 hPa 0,0 l/m 1,6 km/h (1 Bft) N-NW 337 0 min 0,000 mm 0 W/m 10,3 C 15,1 C 11,3 km/h (2 Bft) 100 %
20.06.2014 01:00 14,9 C 14,9 C 15,1 C 74 % 1016,2 hPa 0,0 l/m 0,0 km/h (0 Bft) N-NW 337 0 min 0,025 mm 0 W/m 10,3 C 14,9 C 4,8 km/h (1 Bft) 100 %
20.06.2014 01:10 14,8 C 14,8 C 14,9 C 75 % 1016,1 hPa 0,0 l/m 0,0 km/h (0 Bft) NO 45 0 min 0,000 mm 0 W/m 10,4 C 14,8 C 6,4 km/h (2 Bft) 99 %
20.06.2014 01:20 14,6 C 14,6 C 14,8 C 79 % 1016,3 hPa 0,0 l/m 0,0 km/h (0 Bft) N 0 0 min 0,000 mm 0 W/m 11,0 C 14,6 C 0,0 km/h (0 Bft) 99 %
20.06.2014 01:30 14,3 C 14,3 C 14,6 C 81 % 1016,3 hPa 0,0 l/m 0,0 km/h (0 Bft) N-NO 22 0 min 0,000 mm 0 W/m 11,1 C 14,3 C 1,6 km/h (1 Bft) 100 %
20.06.2014 01:40 14,1 C 14,1 C 14,3 C 82 % 1016,2 hPa 0,4 l/m 0,0 km/h (0 Bft) N 0 0 min 0,000 mm 0 W/m 11,1 C 14,1 C 0,0 km/h (0 Bft) 100 %
20.06.2014 01:50 13,9 C 13,9 C 14,1 C 83 % 1016,3 hPa 0,0 l/m 0,0 km/h (0 Bft) N-NO 22 0 min 0,000 mm 0 W/m 11,1 C 13,9 C 1,6 km/h (1 Bft) 100 %
20.06.2014 02:00 13,6 C 13,6 C 13,9 C 84 % 1016,3 hPa 0,4 l/m 0,0 km/h (0 Bft) N-NO 22 0 min 0,025 mm 0 W/m 10,9 C 13,6 C 1,6 km/h (1 Bft) 100 %
20.06.2014 02:10 13,4 C 13,4 C 13,6 C 85 % 1016,3 hPa 0,2 l/m 0,0 km/h (0 Bft) N-NO 22 0 min 0,000 mm 0 W/m 10,9 C 13,4 C 1,6 km/h (1 Bft) 100 %
20.06.2014 02:20 13,3 C 13,3 C 13,4 C 86 % 1016,1 hPa 0,0 l/m 0,0 km/h (0 Bft) N 0 0 min 0,000 mm 0 W/m 11,0 C 13,3 C 0,0 km/h (0 Bft) 100 %
20.06.2014 02:30 13,1 C 13,1 C 13,3 C 86 % 1016,0 hPa 0,0 l/m 0,0 km/h (0 Bft) N-NO 22 0 min 0,000 mm 0 W/m 10,8 C 13,1 C 3,2 km/h (1 Bft) 100 %
20.06.2014 02:40 13,0 C 13,0 C 13,1 C 86 % 1015,9 hPa 0,2 l/m 0,0 km/h (0 Bft) N 0 0 min 0,000 mm 0 W/m 10,7 C 13,0 C 0,0 km/h (0 Bft) 100 %
20.06.2014 02:50 12,8 C 12,8 C 12,9 C 86 % 1015,8 hPa 0,0 l/m 0,0 km/h (0 Bft) N-NO 22 0 min 0,000 mm 0 W/m 10,5 C 12,8 C 3,2 km/h (1 Bft) 100 %
20.06.2014 03:00 12,7 C 12,7 C 12,8 C 86 % 1015,8 hPa 0,0 l/m 0,0 km/h (0 Bft) N-NO 22 0 min 0,000 mm 0 W/m 10,4 C 12,7 C 1,6 km/h (1 Bft) 100 %
20.06.2014 03:10 12,6 C 12,6 C 12,7 C 86 % 1015,9 hPa 0,0 l/m 0,0 km/h (0 Bft) N 0 0 min 0,000 mm 0 W/m 10,3 C 12,6 C 0,0 km/h (0 Bft) 100 %
20.06.2014 03:20 12,6 C 12,6 C 12,6 C 86 % 1015,8 hPa 0,0 l/m 0,0 km/h (0 Bft) N-NO 22 0 min 0,000 mm 0 W/m 10,3 C 12,6 C 1,6 km/h (1 Bft) 100 %
20.06.2014 03:30 12,6 C 12,6 C 12,6 C 87 % 1015,8 hPa 0,0 l/m 0,0 km/h (0 Bft) N 0 0 min 0,000 mm 0 W/m 10,5 C 12,6 C 0,0 km/h (0 Bft) 100 %
20.06.2014 03:40 12,6 C 12,6 C 12,6 C 87 % 1015,9 hPa 0,0 l/m 0,0 km/h (0 Bft) N 0 0 min 0,000 mm 0 W/m 10,5 C 12,6 C 0,0 km/h (0 Bft) 100 %
20.06.2014 03:50 12,6 C 12,6 C 12,6 C 87 % 1015,9 hPa 0,0 l/m 0,0 km/h (0 Bft) O-NO 67 0 min 0,000 mm 0 W/m 10,5 C 12,6 C 1,6 km/h (1 Bft) 100 %
20.06.2014 04:00 12,6 C 12,6 C 12,6 C 87 % 1015,8 hPa 0,0 l/m 0,0 km/h (0 Bft) O-SO 112 0 min 0,000 mm 0 W/m 10,5 C 12,6 C 3,2 km/h (1 Bft) 100 %
20.06.2014 04:10 12,6 C 12,6 C 12,6 C 87 % 1015,8 hPa 0,0 l/m 0,0 km/h (0 Bft) N 0 0 min 0,000 mm 0 W/m 10,5 C 12,6 C 0,0 km/h (0 Bft) 100 %
20.06.2014 04:20 12,7 C 12,6 C 12,7 C 87 % 1015,9 hPa 0,0 l/m 0,0 km/h (0 Bft) O-SO 112 0 min 0,000 mm 0 W/m 10,6 C 12,7 C 3,2 km/h (1 Bft) 100 %
20.06.2014 04:30 12,7 C 12,6 C 12,7 C 87 % 1015,7 hPa 0,0 l/m 0,0 km/h (0 Bft) N 0 0 min 0,000 mm 0 W/m 10,6 C 12,7 C 0,0 km/h (0 Bft) 100 %
20.06.2014 04:40 12,6 C 12,6 C 12,7 C 87 % 1015,7 hPa 0,0 l/m 0,0 km/h (0 Bft) O-SO 112 0 min 0,000 mm 0 W/m 10,5 C 12,6 C 3,2 km/h (1 Bft) 100 %
20.06.2014 04:50 12,6 C 12,6 C 12,6 C 87 % 1015,6 hPa 0,0 l/m 0,0 km/h (0 Bft) O-SO 112 0 min 0,000 mm 0 W/m 10,5 C 12,6 C 3,2 km/h (1 Bft) 100 %
20.06.2014 05:00 12,5 C 12,5 C 12,6 C 87 % 1015,6 hPa 0,0 l/m 0,0 km/h (0 Bft) SO 135 0 min 0,000 mm 0 W/m 10,4 C 12,5 C 4,8 km/h (1 Bft) 100 %
20.06.2014 05:10 12,4 C 12,4 C 12,5 C 87 % 1015,6 hPa 0,0 l/m 0,0 km/h (0 Bft) SO 135 0 min 0,000 mm 0 W/m 10,3 C 12,4 C 3,2 km/h (1 Bft) 99 %
20.06.2014 05:20 12,4 C 12,4 C 12,5 C 87 % 1015,6 hPa 0,0 l/m 0,0 km/h (0 Bft) SO 135 0 min 0,000 mm 0 W/m 10,3 C 12,4 C 1,6 km/h (1 Bft) 100 %
20.06.2014 05:30 12,5 C 12,5 C 12,5 C 87 % 1015,6 hPa 0,0 l/m 0,0 km/h (0 Bft) W-SW 247 0 min 0,000 mm 0 W/m 10,4 C 12,5 C 4,8 km/h (1 Bft) 100 %
20.06.2014 05:40 12,5 C 12,5 C 12,5 C 87 % 1015,6 hPa 0,0 l/m 0,0 km/h (0 Bft) W-SW 247 0 min 0,000 mm 0 W/m 10,4 C 12,5 C 4,8 km/h (1 Bft) 100 %
20.06.2014 05:50 12,5 C 12,5 C 12,5 C 87 % 1015,6 hPa 0,0 l/m 0,0 km/h (0 Bft) W-SW 247 0 min 0,000 mm 0 W/m 10,4 C 12,5 C 6,4 km/h (2 Bft) 100 %
20.06.2014 06:00 12,5 C 12,5 C 12,5 C 87 % 1015,7 hPa 0,0 l/m 1,6 km/h (1 Bft) W-SW 247 0 min 0,000 mm 0 W/m 10,4 C 12,5 C 8,0 km/h (2 Bft) 100 %
20.06.2014 06:10 12,6 C 12,5 C 12,6 C 87 % 1015,6 hPa 0,2 l/m 1,6 km/h (1 Bft) NW 315 0 min 0,000 mm 0 W/m 10,5 C 12,6 C 8,0 km/h (2 Bft) 100 %
20.06.2014 06:20 12,6 C 12,6 C 12,6 C 87 % 1015,7 hPa 0,2 l/m 4,8 km/h (1 Bft) NW 315 0 min 0,000 mm 11 W/m 10,5 C 12,6 C 17,7 km/h (3 Bft) 100 %
20.06.2014 06:30 12,4 C 12,4 C 12,6 C 87 % 1015,6 hPa 0,0 l/m 1,6 km/h (1 Bft) N-NW 337 0 min 0,000 mm 25 W/m 10,3 C 12,4 C 11,3 km/h (2 Bft) 100 %
20.06.2014 06:40 12,3 C 12,3 C 12,4 C 87 % 1015,7 hPa 0,0 l/m 0,0 km/h (0 Bft) N-NW 337 0 min 0,000 mm 30 W/m 10,2 C 12,3 C 1,6 km/h (1 Bft) 100 %
20.06.2014 06:50 12,4 C 12,3 C 12,4 C 87 % 1015,7 hPa 0,0 l/m 0,0 km/h (0 Bft) N-NW 337 0 min 0,000 mm 39 W/m 10,3 C 12,4 C 3,2 km/h (1 Bft) 100 %
20.06.2014 07:00 12,4 C 12,4 C 12,4 C 87 % 1015,8 hPa 0,0 l/m 0,0 km/h (0 Bft) N-NW 337 0 min 0,025 mm 40 W/m 10,3 C 12,4 C 4,8 km/h (1 Bft) 100 %
20.06.2014 07:10 12,5 C 12,4 C 12,5 C 87 % 1015,9 hPa 0,0 l/m 0,0 km/h (0 Bft) N-NW 337 0 min 0,000 mm 26 W/m 10,4 C 12,5 C 4,8 km/h (1 Bft) 100 %
20.06.2014 07:20 12,6 C 12,5 C 12,6 C 87 % 1015,9 hPa 0,0 l/m 0,0 km/h (0 Bft) N-NW 337 0 min 0,000 mm 35 W/m 10,5 C 12,6 C 6,4 km/h (2 Bft) 99 %
20.06.2014 07:30 12,7 C 12,6 C 12,7 C 87 % 1016,0 hPa 0,0 l/m 0,0 km/h (0 Bft) N-NW 337 0 min 0,000 mm 42 W/m 10,6 C 12,7 C 6,4 km/h (2 Bft) 100 %
20.06.2014 07:40 12,4 C 12,4 C 12,7 C 87 % 1015,9 hPa 0,0 l/m 3,2 km/h (1 Bft) N-NW 337 0 min 0,000 mm 76 W/m 10,3 C 12,4 C 11,3 km/h (2 Bft) 100 %
20.06.2014 07:50 12,3 C 12,3 C 12,4 C 87 % 1015,9 hPa 0,0 l/m 1,6 km/h (1 Bft) N-NW 337 0 min 0,000 mm 72 W/m 10,2 C 12,3 C 9,7 km/h (2 Bft) 100 %
20.06.2014 08:00 12,2 C 12,2 C 12,3 C 87 % 1016,2 hPa 0,0 l/m 0,0 km/h (0 Bft) NW 315 0 min 0,025 mm 74 W/m 10,1 C 12,2 C 6,4 km/h (2 Bft) 100 %
20.06.2014 08:10 12,4 C 12,2 C 12,4 C 87 % 1016,2 hPa 0,0 l/m 0,0 km/h (0 Bft) NW 315 0 min 0,000 mm 114 W/m 10,3 C 12,4 C 1,6 km/h (1 Bft) 100 %
20.06.2014 08:20 12,5 C 12,4 C 12,5 C 87 % 1016,2 hPa 0,0 l/m 0,0 km/h (0 Bft) NW 315 10 min 0,000 mm 241 W/m 10,4 C 12,5 C 4,8 km/h (1 Bft) 100 %
20.06.2014 08:30 12,8 C 12,5 C 12,8 C 87 % 1016,2 hPa 0,0 l/m 1,6 km/h (1 Bft) NW 315 10 min 0,000 mm 439 W/m 10,7 C 12,8 C 8,0 km/h (2 Bft) 89 %
20.06.2014 08:40 13,1 C 12,8 C 13,1 C 87 % 1016,1 hPa 0,0 l/m 1,6 km/h (1 Bft) W-NW 292 10 min 0,000 mm 482 W/m 11,0 C 13,1 C 8,0 km/h (2 Bft) 100 %
20.06.2014 08:50 13,6 C 13,1 C 13,6 C 86 % 1016,2 hPa 0,0 l/m 3,2 km/h (1 Bft) NW 315 10 min 0,000 mm 506 W/m 11,3 C 13,6 C 9,7 km/h (2 Bft) 100 %
20.06.2014 09:00 14,2 C 13,6 C 14,2 C 85 % 1016,2 hPa 0,0 l/m 0,0 km/h (0 Bft) NW 315 10 min 0,152 mm 613 W/m 11,7 C 14,2 C 6,4 km/h (2 Bft) 99 %
20.06.2014 09:10 14,9 C 14,2 C 14,9 C 82 % 1016,2 hPa 0,0 l/m 3,2 km/h (1 Bft) NW 315 10 min 0,000 mm 621 W/m 11,9 C 14,9 C 9,7 km/h (2 Bft) 100 %
20.06.2014 09:20 14,8 C 14,8 C 15,1 C 78 % 1016,2 hPa 0,0 l/m 4,8 km/h (1 Bft) W-NW 292 10 min 0,000 mm 195 W/m 11,0 C 14,8 C 14,5 km/h (3 Bft) 100 %
20.06.2014 09:30 14,4 C 14,4 C 14,8 C 80 % 1016,1 hPa 0,0 l/m 3,2 km/h (1 Bft) NW 315 10 min 0,000 mm 181 W/m 11,0 C 14,4 C 11,3 km/h (2 Bft) 100 %
20.06.2014 09:40 14,2 C 14,2 C 14,4 C 81 % 1016,2 hPa 0,0 l/m 1,6 km/h (1 Bft) N-NW 337 10 min 0,000 mm 281 W/m 11,0 C 14,2 C 9,7 km/h (2 Bft) 100 %
20.06.2014 09:50 14,2 C 14,2 C 14,2 C 79 % 1016,2 hPa 0,0 l/m 3,2 km/h (1 Bft) N-NW 337 10 min 0,000 mm 378 W/m 10,6 C 14,2 C 11,3 km/h (2 Bft) 100 %
20.06.2014 10:00 14,3 C 14,2 C 14,3 C 78 % 1016,4 hPa 0,0 l/m 3,2 km/h (1 Bft) NW 315 10 min 0,127 mm 200 W/m 10,5 C 14,3 C 17,7 km/h (3 Bft) 100 %
20.06.2014 10:10 14,3 C 14,2 C 14,3 C 76 % 1016,2 hPa 0,0 l/m 4,8 km/h (1 Bft) N-NW 337 10 min 0,000 mm 334 W/m 10,1 C 14,3 C 17,7 km/h (3 Bft) 100 %
20.06.2014 10:20 14,8 C 14,3 C 14,8 C 75 % 1016,2 hPa 0,0 l/m 4,8 km/h (1 Bft) NW 315 10 min 0,000 mm 480 W/m 10,4 C 14,8 C 11,3 km/h (2 Bft) 100 %
20.06.2014 10:30 15,1 C 14,8 C 15,1 C 70 % 1016,2 hPa 0,0 l/m 6,4 km/h (2 Bft) NW 315 10 min 0,000 mm 408 W/m 9,7 C 15,1 C 14,5 km/h (3 Bft) 100 %
20.06.2014 10:40 15,4 C 15,1 C 15,4 C 67 % 1016,2 hPa 0,0 l/m 4,8 km/h (1 Bft) NW 315 10 min 0,000 mm 330 W/m 9,3 C 15,4 C 9,7 km/h (2 Bft) 100 %
20.06.2014 10:50 15,8 C 15,4 C 15,8 C 68 % 1016,2 hPa 0,0 l/m 1,6 km/h (1 Bft) NW 315 10 min 0,000 mm 417 W/m 9,9 C 15,8 C 14,5 km/h (3 Bft) 100 %
20.06.2014 11:00 16,0 C 15,8 C 16,0 C 67 % 1016,3 hPa 0,0 l/m 3,2 km/h (1 Bft) NW 315 10 min 0,203 mm 399 W/m 9,9 C 16,0 C 12,9 km/h (3 Bft) 100 %
20.06.2014 11:10 16,1 C 16,0 C 16,1 C 66 % 1016,3 hPa 0,0 l/m 3,2 km/h (1 Bft) NW 315 10 min 0,000 mm 545 W/m 9,7 C 16,1 C 11,3 km/h (2 Bft) 100 %
20.06.2014 11:20 16,1 C 16,1 C 16,1 C 67 % 1016,3 hPa 0,0 l/m 3,2 km/h (1 Bft) NW 315 10 min 0,000 mm 295 W/m 10,0 C 16,1 C 11,3 km/h (2 Bft) 100 %
20.06.2014 11:30 16,7 C 16,1 C 16,7 C 67 % 1016,2 hPa 0,0 l/m 3,1 km/h (1 Bft) NW 319 10 min 0,000 mm 1005 W/m 10,5 C 16,7 C 9,7 km/h (2 Bft) 100 %
20.06.2014 11:40 17,4 C 16,7 C 17,5 C 60 % 1016,2 hPa 0,0 l/m 9,0 km/h (2 Bft) N 355 0 min 0,000 mm 128 W/m 9,6 C 16,2 C 22,5 km/h (4 Bft) 100 %
20.06.2014 11:50 16,6 C 16,6 C 17,4 C 61 % 1016,4 hPa 0,0 l/m 9,5 km/h (2 Bft) NW 326 0 min 0,000 mm 134 W/m 9,0 C 15,1 C 25,7 km/h (4 Bft) 100 %
20.06.2014 12:00 16,1 C 16,1 C 16,6 C 67 % 1016,4 hPa 0,0 l/m 9,9 km/h (2 Bft) N-NW 337 10 min 0,180 mm 359 W/m 10,0 C 14,4 C 22,5 km/h (4 Bft) 99 %
20.06.2014 12:10 16,3 C 16,1 C 16,3 C 65 % 1016,5 hPa 0,0 l/m 10,6 km/h (2 Bft) N-NW 331 10 min 0,000 mm 258 W/m 9,7 C 14,3 C 20,9 km/h (4 Bft) 100 %
20.06.2014 12:20 16,4 C 16,3 C 16,4 C 64 % 1016,7 hPa 0,0 l/m 8,2 km/h (2 Bft) NW 311 10 min 0,000 mm 272 W/m 9,6 C 15,5 C 20,9 km/h (4 Bft) 100 %
20.06.2014 12:30 16,2 C 16,2 C 16,4 C 64 % 1016,6 hPa 0,0 l/m 11,3 km/h (2 Bft) NW 316 10 min 0,000 mm 297 W/m 9,4 C 13,9 C 25,7 km/h (4 Bft) 100 %
20.06.2014 12:40 16,1 C 16,1 C 16,2 C 64 % 1016,7 hPa 0,0 l/m 13,6 km/h (3 Bft) N-NW 327 10 min 0,000 mm 394 W/m 9,3 C 13,0 C 27,4 km/h (4 Bft) 100 %
20.06.2014 12:50 16,3 C 16,1 C 16,3 C 65 % 1016,6 hPa 0,0 l/m 11,9 km/h (2 Bft) NW 319 10 min 0,000 mm 432 W/m 9,7 C 13,8 C 22,5 km/h (4 Bft) 100 %
20.06.2014 13:00 16,3 C 16,2 C 16,3 C 64 % 1016,7 hPa 0,0 l/m 14,3 km/h (3 Bft) N-NW 334 10 min 0,229 mm 323 W/m 9,5 C 13,0 C 25,7 km/h (4 Bft) 100 %
20.06.2014 13:10 16,2 C 16,2 C 16,3 C 63 % 1016,9 hPa 0,0 l/m 10,7 km/h (2 Bft) NW 323 10 min 0,000 mm 285 W/m 9,1 C 14,2 C 25,7 km/h (4 Bft) 100 %
20.06.2014 13:20 15,6 C 15,6 C 16,2 C 64 % 1016,9 hPa 0,0 l/m 16,4 km/h (3 Bft) NW 309 10 min 0,000 mm 162 W/m 8,8 C 11,5 C 27,4 km/h (4 Bft) 100 %
20.06.2014 13:30 14,9 C 14,9 C 15,6 C 69 % 1017,2 hPa 0,0 l/m 15,7 km/h (3 Bft) NW 306 10 min 0,000 mm 171 W/m 9,3 C 10,8 C 30,6 km/h (5 Bft) 100 %
20.06.2014 13:40 14,4 C 14,4 C 14,9 C 70 % 1017,1 hPa 0,0 l/m 6,4 km/h (2 Bft) W-SW 255 10 min 0,000 mm 320 W/m 9,0 C 14,4 C 17,7 km/h (3 Bft) 100 %
20.06.2014 13:50 14,9 C 14,4 C 14,9 C 66 % 1017,0 hPa 0,0 l/m 5,0 km/h (1 Bft) W-NW 302 10 min 0,000 mm 417 W/m 8,6 C 14,9 C 16,1 km/h (3 Bft) 100 %
20.06.2014 14:00 15,4 C 14,9 C 15,4 C 66 % 1017,0 hPa 0,0 l/m 5,0 km/h (1 Bft) NW 319 10 min 0,203 mm 468 W/m 9,1 C 15,4 C 17,7 km/h (3 Bft) 100 %
20.06.2014 14:10 16,2 C 15,4 C 16,2 C 62 % 1016,9 hPa 0,0 l/m 9,6 km/h (2 Bft) NW 315 10 min 0,000 mm 448 W/m 8,9 C 14,6 C 20,9 km/h (4 Bft) 100 %
20.06.2014 14:20 17,1 C 16,2 C 17,1 C 63 % 1016,7 hPa 0,0 l/m 9,5 km/h (2 Bft) W-NW 302 10 min 0,000 mm 568 W/m 10,0 C 15,6 C 22,5 km/h (4 Bft) 100 %
20.06.2014 14:30 18,1 C 17,1 C 18,1 C 59 % 1016,7 hPa 0,0 l/m 8,1 km/h (2 Bft) NW 313 10 min 0,000 mm 367 W/m 10,0 C 17,3 C 19,3 km/h (3 Bft) 100 %
20.06.2014 14:40 17,9 C 17,9 C 18,1 C 59 % 1016,5 hPa 0,0 l/m 13,6 km/h (3 Bft) N-NW 330 10 min 0,000 mm 441 W/m 9,8 C 15,1 C 25,7 km/h (4 Bft) 100 %
20.06.2014 14:50 17,8 C 17,8 C 17,9 C 58 % 1016,6 hPa 0,0 l/m 13,0 km/h (3 Bft) N 11 10 min 0,000 mm 345 W/m 9,4 C 15,2 C 24,1 km/h (4 Bft) 100 %
20.06.2014 15:00 17,6 C 17,6 C 17,8 C 60 % 1016,7 hPa 0,0 l/m 11,5 km/h (2 Bft) W-NW 295 10 min 0,330 mm 188 W/m 9,7 C 15,4 C 25,7 km/h (4 Bft) 100 %
20.06.2014 15:10 17,3 C 17,3 C 17,6 C 60 % 1016,7 hPa 0,0 l/m 9,7 km/h (2 Bft) NW 309 10 min 0,000 mm 295 W/m 9,5 C 15,8 C 22,5 km/h (4 Bft) 100 %
20.06.2014 15:20 17,3 C 17,3 C 17,3 C 59 % 1016,7 hPa 0,0 l/m 10,6 km/h (2 Bft) NW 313 10 min 0,000 mm 313 W/m 9,2 C 15,4 C 20,9 km/h (4 Bft) 100 %
20.06.2014 15:30 17,4 C 17,3 C 17,4 C 60 % 1016,6 hPa 0,0 l/m 5,2 km/h (1 Bft) NW 306 10 min 0,000 mm 388 W/m 9,6 C 17,4 C 14,5 km/h (3 Bft) 100 %
20.06.2014 15:40 18,1 C 17,4 C 18,1 C 57 % 1016,7 hPa 0,0 l/m 6,8 km/h (2 Bft) NW 323 10 min 0,000 mm 399 W/m 9,4 C 17,9 C 19,3 km/h (3 Bft) 100 %
20.06.2014 15:50 18,1 C 18,1 C 18,1 C 57 % 1016,7 hPa 0,0 l/m 8,6 km/h (2 Bft) W-NW 285 10 min 0,000 mm 316 W/m 9,4 C 17,1 C 19,3 km/h (3 Bft) 100 %
20.06.2014 16:00 18,0 C 18,0 C 18,2 C 57 % 1016,7 hPa 0,0 l/m 6,7 km/h (2 Bft) N-NW 329 10 min 0,254 mm 204 W/m 9,4 C 17,9 C 19,3 km/h (3 Bft) 100 %
20.06.2014 16:10 17,7 C 17,7 C 18,0 C 58 % 1016,7 hPa 0,0 l/m 7,5 km/h (2 Bft) W-NW 301 10 min 0,000 mm 192 W/m 9,3 C 17,2 C 19,3 km/h (3 Bft) 100 %
20.06.2014 16:20 17,7 C 17,6 C 17,7 C 58 % 1016,7 hPa 0,0 l/m 5,7 km/h (1 Bft) NW 309 10 min 0,000 mm 826 W/m 9,3 C 17,7 C 12,9 km/h (3 Bft) 100 %
20.06.2014 16:30 18,7 C 17,7 C 18,7 C 54 % 1016,6 hPa 0,0 l/m 8,2 km/h (2 Bft) NW 323 10 min 0,000 mm 230 W/m 9,2 C 17,9 C 25,7 km/h (4 Bft) 100 %
20.06.2014 16:40 18,6 C 18,6 C 18,8 C 54 % 1016,5 hPa 0,0 l/m 5,2 km/h (1 Bft) W-NW 300 10 min 0,000 mm 846 W/m 9,1 C 18,6 C 11,3 km/h (2 Bft) 100 %
20.06.2014 16:50 18,9 C 18,6 C 18,9 C 54 % 1016,4 hPa 0,0 l/m 7,7 km/h (2 Bft) NW 310 10 min 0,000 mm 279 W/m 9,4 C 18,3 C 17,7 km/h (3 Bft) 100 %
20.06.2014 17:00 18,9 C 18,8 C 18,9 C 52 % 1016,5 hPa 0,0 l/m 10,8 km/h (2 Bft) N-NW 331 10 min 0,280 mm 684 W/m 8,8 C 17,1 C 20,9 km/h (4 Bft) 99 %
20.06.2014 17:10 19,4 C 18,9 C 19,4 C 50 % 1016,4 hPa 0,0 l/m 10,3 km/h (2 Bft) NW 307 10 min 0,000 mm 193 W/m 8,7 C 17,9 C 22,5 km/h (4 Bft) 100 %
20.06.2014 17:20 19,6 C 19,4 C 19,6 C 49 % 1016,5 hPa 0,0 l/m 11,4 km/h (2 Bft) W-NW 302 10 min 0,000 mm 229 W/m 8,6 C 17,7 C 20,9 km/h (4 Bft) 100 %
20.06.2014 17:30 19,3 C 19,3 C 19,6 C 54 % 1016,5 hPa 0,0 l/m 7,5 km/h (2 Bft) NW 312 10 min 0,000 mm 388 W/m 9,8 C 18,8 C 17,7 km/h (3 Bft) 100 %
20.06.2014 17:40 19,6 C 19,3 C 19,6 C 51 % 1016,5 hPa 0,0 l/m 9,1 km/h (2 Bft) NW 308 10 min 0,000 mm 236 W/m 9,2 C 18,5 C 20,9 km/h (4 Bft) 100 %
20.06.2014 17:50 19,2 C 19,2 C 19,6 C 52 % 1016,5 hPa 0,0 l/m 6,9 km/h (2 Bft) NW 316 10 min 0,000 mm 237 W/m 9,1 C 19,0 C 17,7 km/h (3 Bft) 100 %
20.06.2014 18:00 18,8 C 18,8 C 19,2 C 54 % 1016,6 hPa 0,0 l/m 5,8 km/h (2 Bft) NW 312 10 min 0,254 mm 202 W/m 9,3 C 18,8 C 12,9 km/h (3 Bft) 100 %
20.06.2014 18:10 18,4 C 18,4 C 18,8 C 53 % 1016,5 hPa 0,0 l/m 5,2 km/h (1 Bft) N-NW 343 10 min 0,000 mm 225 W/m 8,6 C 18,4 C 16,1 km/h (3 Bft) 100 %
20.06.2014 18:20 18,3 C 18,3 C 18,4 C 54 % 1016,6 hPa 0,0 l/m 9,0 km/h (2 Bft) W-NW 292 10 min 0,000 mm 243 W/m 8,8 C 17,1 C 17,7 km/h (3 Bft) 100 %
20.06.2014 18:30 18,4 C 18,2 C 18,4 C 56 % 1016,5 hPa 0,0 l/m 9,9 km/h (2 Bft) NW 317 10 min 0,000 mm 287 W/m 9,5 C 16,9 C 19,3 km/h (3 Bft) 100 %
20.06.2014 18:40 18,8 C 18,4 C 18,8 C 55 % 1016,5 hPa 0,0 l/m 8,4 km/h (2 Bft) NW 318 10 min 0,000 mm 202 W/m 9,6 C 17,9 C 19,3 km/h (3 Bft) 100 %
20.06.2014 18:50 18,4 C 18,4 C 18,8 C 54 % 1016,6 hPa 0,0 l/m 6,8 km/h (2 Bft) NW 323 10 min 0,000 mm 299 W/m 8,9 C 18,2 C 17,7 km/h (3 Bft) 100 %
20.06.2014 19:00 18,2 C 18,2 C 18,4 C 54 % 1016,6 hPa 0,0 l/m 10,9 km/h (2 Bft) NW 317 10 min 0,178 mm 181 W/m 8,7 C 16,3 C 22,5 km/h (4 Bft) 100 %
20.06.2014 19:10 17,9 C 17,9 C 18,2 C 54 % 1016,6 hPa 0,0 l/m 9,2 km/h (2 Bft) NW 318 0 min 0,000 mm 134 W/m 8,5 C 16,6 C 17,7 km/h (3 Bft) 100 %
20.06.2014 19:20 17,7 C 17,7 C 17,9 C 55 % 1016,7 hPa 0,0 l/m 7,5 km/h (2 Bft) NW 325 0 min 0,000 mm 111 W/m 8,5 C 17,2 C 17,7 km/h (3 Bft) 100 %
20.06.2014 19:30 17,5 C 17,5 C 17,7 C 56 % 1016,8 hPa 0,0 l/m 6,3 km/h (2 Bft) W-NW 298 0 min 0,000 mm 83 W/m 8,6 C 17,5 C 14,5 km/h (3 Bft) 100 %
20.06.2014 19:40 17,3 C 17,3 C 17,5 C 56 % 1016,9 hPa 0,0 l/m 7,3 km/h (2 Bft) NW 311 0 min 0,000 mm 84 W/m 8,4 C 16,9 C 17,7 km/h (3 Bft) 100 %
20.06.2014 19:50 17,1 C 17,1 C 17,3 C 56 % 1016,8 hPa 0,0 l/m 7,0 km/h (2 Bft) NW 309 0 min 0,000 mm 93 W/m 8,3 C 16,8 C 17,7 km/h (3 Bft) 100 %
20.06.2014 20:00 17,2 C 17,1 C 17,2 C 55 % 1016,9 hPa 0,0 l/m 9,5 km/h (2 Bft) W-SW 244 0 min 0,101 mm 63 W/m 8,1 C 15,8 C 20,9 km/h (4 Bft) 100 %
20.06.2014 20:10 17,2 C 17,2 C 17,3 C 57 % 1016,9 hPa 0,0 l/m 7,5 km/h (2 Bft) W-NW 299 0 min 0,000 mm 42 W/m 8,6 C 16,7 C 16,1 km/h (3 Bft) 99 %
20.06.2014 20:20 16,9 C 16,9 C 17,2 C 58 % 1016,9 hPa 0,0 l/m 8,4 km/h (2 Bft) NW 304 0 min 0,000 mm 35 W/m 8,6 C 15,9 C 16,1 km/h (3 Bft) 100 %
20.06.2014 20:30 16,6 C 16,6 C 16,9 C 61 % 1016,8 hPa 0,0 l/m 5,2 km/h (1 Bft) NW 323 0 min 0,000 mm 30 W/m 9,0 C 16,6 C 14,5 km/h (3 Bft) 100 %
20.06.2014 20:40 16,2 C 16,2 C 16,6 C 62 % 1016,8 hPa 0,0 l/m 1,5 km/h (1 Bft) N-NW 335 0 min 0,000 mm 33 W/m 8,9 C 16,2 C 6,4 km/h (2 Bft) 100 %
20.06.2014 20:50 15,9 C 15,9 C 16,2 C 63 % 1016,9 hPa 0,0 l/m 1,6 km/h (1 Bft) N-NW 329 0 min 0,000 mm 26 W/m 8,9 C 15,9 C 8,0 km/h (2 Bft) 100 %
20.06.2014 21:00 15,6 C 15,6 C 15,9 C 64 % 1016,9 hPa 0,0 l/m 0,4 km/h (0 Bft) N-NW 329 0 min 0,051 mm 14 W/m 8,8 C 15,6 C 4,8 km/h (1 Bft) 100 %
20.06.2014 21:10 15,4 C 15,4 C 15,6 C 64 % 1016,9 hPa 0,0 l/m 3,2 km/h (1 Bft) NW 315 0 min 0,000 mm 14 W/m 8,6 C 15,4 C 9,7 km/h (2 Bft) 98 %
20.06.2014 21:20 15,2 C 15,2 C 15,4 C 64 % 1016,9 hPa 0,0 l/m 1,6 km/h (1 Bft) N-NW 337 0 min 0,000 mm 11 W/m 8,4 C 15,2 C 8,0 km/h (2 Bft) 98 %
20.06.2014 21:30 15,1 C 15,1 C 15,2 C 65 % 1016,9 hPa 0,0 l/m 1,6 km/h (1 Bft) N-NW 337 0 min 0,000 mm 7 W/m 8,6 C 15,1 C 8,0 km/h (2 Bft) 97 %
20.06.2014 21:40 14,8 C 14,8 C 15,1 C 67 % 1017,0 hPa 0,0 l/m 0,0 km/h (0 Bft) N-NW 337 0 min 0,000 mm 0 W/m 8,7 C 14,8 C 4,8 km/h (1 Bft) 98 %
20.06.2014 21:50 14,6 C 14,6 C 14,8 C 67 % 1017,1 hPa 0,0 l/m 0,0 km/h (0 Bft) N-NW 337 0 min 0,000 mm 0 W/m 8,5 C 14,6 C 4,8 km/h (1 Bft) 97 %
20.06.2014 22:00 14,4 C 14,4 C 14,6 C 68 % 1017,2 hPa 0,0 l/m 0,0 km/h (0 Bft) N-NW 337 0 min 0,025 mm 0 W/m 8,6 C 14,4 C 6,4 km/h (2 Bft) 98 %
20.06.2014 22:10 14,3 C 14,3 C 14,4 C 69 % 1017,3 hPa 0,0 l/m 0,0 km/h (0 Bft) N-NW 337 0 min 0,000 mm 0 W/m 8,7 C 14,3 C 4,8 km/h (1 Bft) 97 %
20.06.2014 22:20 14,1 C 14,1 C 14,3 C 70 % 1017,3 hPa 0,0 l/m 0,0 km/h (0 Bft) N-NW 337 0 min 0,000 mm 0 W/m 8,7 C 14,1 C 4,8 km/h (1 Bft) 97 %
20.06.2014 22:30 13,8 C 13,8 C 14,1 C 72 % 1017,1 hPa 0,0 l/m 0,0 km/h (0 Bft) N-NW 337 0 min 0,000 mm 0 W/m 8,8 C 13,8 C 1,6 km/h (1 Bft) 98 %
20.06.2014 22:40 13,4 C 13,4 C 13,8 C 74 % 1017,1 hPa 0,0 l/m 0,0 km/h (0 Bft) N-NW 337 0 min 0,000 mm 0 W/m 8,9 C 13,4 C 3,2 km/h (1 Bft) 97 %
20.06.2014 22:50 13,0 C 13,0 C 13,4 C 76 % 1017,2 hPa 0,0 l/m 0,0 km/h (0 Bft) N 0 0 min 0,000 mm 0 W/m 8,9 C 13,0 C 0,0 km/h (0 Bft) 98 %
20.06.2014 23:00 12,7 C 12,7 C 13,0 C 76 % 1017,2 hPa 0,0 l/m 0,0 km/h (0 Bft) N 0 0 min 0,025 mm 0 W/m 8,6 C 12,7 C 0,0 km/h (0 Bft) 97 %
20.06.2014 23:10 12,3 C 12,3 C 12,7 C 77 % 1017,3 hPa 0,0 l/m 0,0 km/h (0 Bft) N-NW 337 0 min 0,000 mm 0 W/m 8,4 C 12,3 C 1,6 km/h (1 Bft) 98 %
20.06.2014 23:20 12,0 C 12,0 C 12,3 C 78 % 1017,3 hPa 0,0 l/m 0,0 km/h (0 Bft) N 0 0 min 0,000 mm 0 W/m 8,3 C 12,0 C 0,0 km/h (0 Bft) 97 %
20.06.2014 23:30 11,6 C 11,6 C 12,0 C 79 % 1017,2 hPa 0,0 l/m 0,0 km/h (0 Bft) N-NW 337 0 min 0,000 mm 0 W/m 8,1 C 11,6 C 1,6 km/h (1 Bft) 97 %
20.06.2014 23:40 11,3 C 11,3 C 11,6 C 80 % 1017,2 hPa 0,0 l/m 0,0 km/h (0 Bft) N 0 0 min 0,000 mm 0 W/m 8,0 C 11,3 C 0,0 km/h (0 Bft) 98 %
20.06.2014 23:50 11,1 C 11,1 C 11,3 C 80 % 1017,3 hPa 0,0 l/m 0,0 km/h (0 Bft) N-NW 337 0 min 0,000 mm 0 W/m 7,8 C 11,1 C 1,6 km/h (1 Bft) 97 %
_ Min-Zeit 23:50 23:50 23:50 17:20 04:50 - 00:30 - - - - - 23:50 13:30 01:20 08:30
Minimum _ 11,1 C 11,1 C 11,3 C 49 % 1015,6 hPa - 0,0 km/h (0 Bft) - - - - - 7,8 C 10,8 C 0,0 km/h (0 Bft) 89 %
_ Max-Zeit 17:20 17:20 17:20 03:30 22:10 01:40 13:20 - - 08:20 15:00 11:30 09:10 17:50 13:30 00:10
Maximum _ 19,6 C 19,4 C 19,6 C 87 % 1017,3 hPa 0,4 l/m 16,4 km/h
NW (3 Bft)
- - 10 min 0,330 mm 1005 W/m 11,9 C 19,0 C 30,6 km/h
NW (5 Bft)
100 %
Durchschnitt _ 15,1 C 15,0 C 15,2 C 72 % 1016,4 hPa #1,6 l/m 4,0 km/h (1 Bft) NW - #10:30 h #2,717 mm 265 W/m 9,7 C 14,6 C 11,3 km/h (2 Bft) 100 %
PRIVATE WETTERSTATION BILLIGHEIM-ALLFELD - www.neckar-odenwald-wetter.de - Holger Sonntag